sensor_id;sensor_type;location;lat;lon;timestamp;temperature;humidity
50067;DHT22;35952;52.524;13.340;2024-02-21T00:00:45;8.60;99.90
50067;DHT22;35952;52.524;13.340;2024-02-21T00:03:10;8.60;99.90
50067;DHT22;35952;52.524;13.340;2024-02-21T00:05:36;8.70;99.90
50067;DHT22;35952;52.524;13.340;2024-02-21T00:08:02;8.60;99.90
50067;DHT22;35952;52.524;13.340;2024-02-21T00:10:28;8.70;99.90
50067;DHT22;35952;52.524;13.340;2024-02-21T00:12:54;8.70;99.90
50067;DHT22;35952;52.524;13.340;2024-02-21T00:15:20;8.60;99.90
50067;DHT22;35952;52.524;13.340;2024-02-21T00:17:46;8.60;99.90
50067;DHT22;35952;52.524;13.340;2024-02-21T00:20:12;8.80;99.90
50067;DHT22;35952;52.524;13.340;2024-02-21T00:22:37;8.70;99.90
50067;DHT22;35952;52.524;13.340;2024-02-21T00:25:03;8.70;99.90
50067;DHT22;35952;52.524;13.340;2024-02-21T00:27:29;8.70;99.90
50067;DHT22;35952;52.524;13.340;2024-02-21T00:29:54;8.70;99.90
50067;DHT22;35952;52.524;13.340;2024-02-21T00:32:20;8.40;99.90
50067;DHT22;35952;52.524;13.340;2024-02-21T00:34:46;8.50;99.90
50067;DHT22;35952;52.524;13.340;2024-02-21T00:37:11;8.50;99.90
50067;DHT22;35952;52.524;13.340;2024-02-21T00:39:37;8.50;99.90
50067;DHT22;35952;52.524;13.340;2024-02-21T00:42:02;8.50;99.90
50067;DHT22;35952;52.524;13.340;2024-02-21T00:44:28;8.70;99.90
50067;DHT22;35952;52.524;13.340;2024-02-21T00:46:54;8.60;99.90
50067;DHT22;35952;52.524;13.340;2024-02-21T00:49:19;8.70;99.90
50067;DHT22;35952;52.524;13.340;2024-02-21T00:51:45;8.60;99.90
50067;DHT22;35952;52.524;13.340;2024-02-21T00:54:10;8.70;99.90
50067;DHT22;35952;52.524;13.340;2024-02-21T00:56:36;8.70;99.90
50067;DHT22;35952;52.524;13.340;2024-02-21T00:59:01;8.60;99.90
50067;DHT22;35952;52.524;13.340;2024-02-21T01:01:27;8.70;99.90
50067;DHT22;35952;52.524;13.340;2024-02-21T01:03:52;8.50;99.90
50067;DHT22;35952;52.524;13.340;2024-02-21T01:06:21;8.60;99.90
50067;DHT22;35952;52.524;13.340;2024-02-21T01:08:47;8.50;99.90
50067;DHT22;35952;52.524;13.340;2024-02-21T01:11:13;8.50;99.90
50067;DHT22;35952;52.524;13.340;2024-02-21T01:13:39;8.60;99.90
50067;DHT22;35952;52.524;13.340;2024-02-21T01:16:05;8.60;99.90
50067;DHT22;35952;52.524;13.340;2024-02-21T01:18:32;8.70;99.90
50067;DHT22;35952;52.524;13.340;2024-02-21T01:20:57;8.70;99.90
50067;DHT22;35952;52.524;13.340;2024-02-21T01:23:23;8.70;99.90
50067;DHT22;35952;52.524;13.340;2024-02-21T01:25:48;8.60;99.90
50067;DHT22;35952;52.524;13.340;2024-02-21T01:28:14;8.60;99.90
50067;DHT22;35952;52.524;13.340;2024-02-21T01:30:40;8.50;99.90
50067;DHT22;35952;52.524;13.340;2024-02-21T01:33:05;8.60;99.90
50067;DHT22;35952;52.524;13.340;2024-02-21T01:35:31;8.60;99.90
50067;DHT22;35952;52.524;13.340;2024-02-21T01:37:56;8.60;99.90
50067;DHT22;35952;52.524;13.340;2024-02-21T01:40:22;8.50;99.90
50067;DHT22;35952;52.524;13.340;2024-02-21T01:42:47;8.60;99.90
50067;DHT22;35952;52.524;13.340;2024-02-21T01:45:14;8.70;99.90
50067;DHT22;35952;52.524;13.340;2024-02-21T01:47:40;8.80;99.90
50067;DHT22;35952;52.524;13.340;2024-02-21T01:50:06;8.90;99.90
50067;DHT22;35952;52.524;13.340;2024-02-21T01:52:32;8.80;99.90
50067;DHT22;35952;52.524;13.340;2024-02-21T01:54:59;8.80;99.90
50067;DHT22;35952;52.524;13.340;2024-02-21T01:57:24;8.80;99.90
50067;DHT22;35952;52.524;13.340;2024-02-21T01:59:50;8.70;99.90
50067;DHT22;35952;52.524;13.340;2024-02-21T02:02:16;8.80;99.90
50067;DHT22;35952;52.524;13.340;2024-02-21T02:04:43;8.80;99.90
50067;DHT22;35952;52.524;13.340;2024-02-21T02:07:09;8.90;99.90
50067;DHT22;35952;52.524;13.340;2024-02-21T02:09:34;9.00;99.90
50067;DHT22;35952;52.524;13.340;2024-02-21T02:12:00;8.90;99.90
50067;DHT22;35952;52.524;13.340;2024-02-21T02:14:27;9.00;99.90
50067;DHT22;35952;52.524;13.340;2024-02-21T02:16:52;9.00;99.90
50067;DHT22;35952;52.524;13.340;2024-02-21T02:19:18;8.90;99.90
50067;DHT22;35952;52.524;13.340;2024-02-21T02:21:46;8.90;99.90
50067;DHT22;35952;52.524;13.340;2024-02-21T02:24:19;8.90;99.90
50067;DHT22;35952;52.524;13.340;2024-02-21T02:26:45;8.80;99.90
50067;DHT22;35952;52.524;13.340;2024-02-21T02:29:10;8.70;99.90
50067;DHT22;35952;52.524;13.340;2024-02-21T02:31:36;8.70;99.90
50067;DHT22;35952;52.524;13.340;2024-02-21T02:34:03;8.70;99.90
50067;DHT22;35952;52.524;13.340;2024-02-21T02:36:31;8.60;99.90
50067;DHT22;35952;52.524;13.340;2024-02-21T02:38:57;8.60;99.90
50067;DHT22;35952;52.524;13.340;2024-02-21T02:41:22;8.60;99.90
50067;DHT22;35952;52.524;13.340;2024-02-21T02:43:48;8.60;99.90
50067;DHT22;35952;52.524;13.340;2024-02-21T02:46:13;8.50;99.90
50067;DHT22;35952;52.524;13.340;2024-02-21T02:48:38;8.50;99.90
50067;DHT22;35952;52.524;13.340;2024-02-21T02:51:04;8.50;99.90
50067;DHT22;35952;52.524;13.340;2024-02-21T02:53:29;8.50;99.90
50067;DHT22;35952;52.524;13.340;2024-02-21T02:55:55;8.50;99.90
50067;DHT22;35952;52.524;13.340;2024-02-21T02:58:21;8.40;99.90
50067;DHT22;35952;52.524;13.340;2024-02-21T03:00:46;8.40;99.90
50067;DHT22;35952;52.524;13.340;2024-02-21T03:03:12;8.40;99.90
50067;DHT22;35952;52.524;13.340;2024-02-21T03:05:37;8.40;99.90
50067;DHT22;35952;52.524;13.340;2024-02-21T03:08:03;8.30;99.90
50067;DHT22;35952;52.524;13.340;2024-02-21T03:10:32;8.20;99.90
50067;DHT22;35952;52.524;13.340;2024-02-21T03:12:58;8.20;99.90
50067;DHT22;35952;52.524;13.340;2024-02-21T03:15:24;8.30;99.90
50067;DHT22;35952;52.524;13.340;2024-02-21T03:17:49;8.30;99.90
50067;DHT22;35952;52.524;13.340;2024-02-21T03:20:15;8.30;99.90
50067;DHT22;35952;52.524;13.340;2024-02-21T03:22:41;8.30;99.90
50067;DHT22;35952;52.524;13.340;2024-02-21T03:25:08;8.30;99.90
50067;DHT22;35952;52.524;13.340;2024-02-21T03:27:33;8.20;99.90
50067;DHT22;35952;52.524;13.340;2024-02-21T03:29:59;8.20;99.90
50067;DHT22;35952;52.524;13.340;2024-02-21T03:32:24;8.10;99.90
50067;DHT22;35952;52.524;13.340;2024-02-21T03:34:50;8.00;99.90
50067;DHT22;35952;52.524;13.340;2024-02-21T03:37:15;8.10;99.90
50067;DHT22;35952;52.524;13.340;2024-02-21T03:39:41;8.00;99.90
50067;DHT22;35952;52.524;13.340;2024-02-21T03:42:07;8.10;99.90
50067;DHT22;35952;52.524;13.340;2024-02-21T03:44:32;8.10;99.90
50067;DHT22;35952;52.524;13.340;2024-02-21T03:46:59;8.10;99.90
50067;DHT22;35952;52.524;13.340;2024-02-21T03:49:25;8.10;99.90
50067;DHT22;35952;52.524;13.340;2024-02-21T03:51:51;8.00;99.90
50067;DHT22;35952;52.524;13.340;2024-02-21T03:54:16;7.90;99.90
50067;DHT22;35952;52.524;13.340;2024-02-21T03:56:42;7.90;99.90
50067;DHT22;35952;52.524;13.340;2024-02-21T03:59:07;7.80;99.90
50067;DHT22;35952;52.524;13.340;2024-02-21T04:01:34;7.90;99.90
50067;DHT22;35952;52.524;13.340;2024-02-21T04:03:59;8.00;99.90
50067;DHT22;35952;52.524;13.340;2024-02-21T04:06:25;8.00;99.90
50067;DHT22;35952;52.524;13.340;2024-02-21T04:08:50;8.00;99.90
50067;DHT22;35952;52.524;13.340;2024-02-21T04:11:16;8.10;99.90
50067;DHT22;35952;52.524;13.340;2024-02-21T04:13:42;8.10;99.90
50067;DHT22;35952;52.524;13.340;2024-02-21T04:16:08;8.00;99.90
50067;DHT22;35952;52.524;13.340;2024-02-21T04:18:33;7.90;99.90
50067;DHT22;35952;52.524;13.340;2024-02-21T04:20:59;8.00;99.90
50067;DHT22;35952;52.524;13.340;2024-02-21T04:23:24;8.00;99.90
50067;DHT22;35952;52.524;13.340;2024-02-21T04:25:50;8.00;99.90
50067;DHT22;35952;52.524;13.340;2024-02-21T04:28:15;8.10;99.90
50067;DHT22;35952;52.524;13.340;2024-02-21T04:30:41;8.10;99.90
50067;DHT22;35952;52.524;13.340;2024-02-21T04:33:06;8.00;99.90
50067;DHT22;35952;52.524;13.340;2024-02-21T04:35:32;8.00;99.90
50067;DHT22;35952;52.524;13.340;2024-02-21T04:37:57;8.00;99.90
50067;DHT22;35952;52.524;13.340;2024-02-21T04:40:23;7.90;99.90
50067;DHT22;35952;52.524;13.340;2024-02-21T04:42:48;8.00;99.90
50067;DHT22;35952;52.524;13.340;2024-02-21T04:45:14;8.00;99.90
50067;DHT22;35952;52.524;13.340;2024-02-21T04:47:39;8.10;99.90
50067;DHT22;35952;52.524;13.340;2024-02-21T04:50:05;8.10;99.90
50067;DHT22;35952;52.524;13.340;2024-02-21T04:52:31;8.10;99.90
50067;DHT22;35952;52.524;13.340;2024-02-21T04:54:56;8.20;99.90
50067;DHT22;35952;52.524;13.340;2024-02-21T04:57:22;8.20;99.90
50067;DHT22;35952;52.524;13.340;2024-02-21T04:59:47;8.10;99.90
50067;DHT22;35952;52.524;13.340;2024-02-21T05:02:13;8.10;99.90
50067;DHT22;35952;52.524;13.340;2024-02-21T05:04:39;8.20;99.90
50067;DHT22;35952;52.524;13.340;2024-02-21T05:07:06;8.20;99.90
50067;DHT22;35952;52.524;13.340;2024-02-21T05:09:32;8.10;99.90
50067;DHT22;35952;52.524;13.340;2024-02-21T05:11:57;8.10;99.90
50067;DHT22;35952;52.524;13.340;2024-02-21T05:14:26;8.10;99.90
50067;DHT22;35952;52.524;13.340;2024-02-21T05:16:55;8.10;99.90
50067;DHT22;35952;52.524;13.340;2024-02-21T05:19:20;8.00;99.90
50067;DHT22;35952;52.524;13.340;2024-02-21T05:21:46;8.00;99.90
50067;DHT22;35952;52.524;13.340;2024-02-21T05:24:11;8.00;99.90
50067;DHT22;35952;52.524;13.340;2024-02-21T05:26:37;8.10;99.90
50067;DHT22;35952;52.524;13.340;2024-02-21T05:29:03;8.10;99.90
50067;DHT22;35952;52.524;13.340;2024-02-21T05:34:17;8.00;99.90
50067;DHT22;35952;52.524;13.340;2024-02-21T05:36:43;8.00;99.90
50067;DHT22;35952;52.524;13.340;2024-02-21T05:39:09;8.10;99.90
50067;DHT22;35952;52.524;13.340;2024-02-21T05:41:34;8.10;99.90
50067;DHT22;35952;52.524;13.340;2024-02-21T05:44:00;7.90;99.90
50067;DHT22;35952;52.524;13.340;2024-02-21T05:46:25;8.00;99.90
50067;DHT22;35952;52.524;13.340;2024-02-21T05:48:51;7.90;99.90
50067;DHT22;35952;52.524;13.340;2024-02-21T05:51:16;8.10;99.90
50067;DHT22;35952;52.524;13.340;2024-02-21T05:53:42;8.10;99.90
50067;DHT22;35952;52.524;13.340;2024-02-21T05:56:14;8.20;99.90
50067;DHT22;35952;52.524;13.340;2024-02-21T05:58:40;8.20;99.90
50067;DHT22;35952;52.524;13.340;2024-02-21T06:01:06;8.20;99.90
50067;DHT22;35952;52.524;13.340;2024-02-21T06:03:34;8.20;99.90
50067;DHT22;35952;52.524;13.340;2024-02-21T06:06:00;8.20;99.90
50067;DHT22;35952;52.524;13.340;2024-02-21T06:08:26;8.20;99.90
50067;DHT22;35952;52.524;13.340;2024-02-21T06:10:52;8.10;99.90
50067;DHT22;35952;52.524;13.340;2024-02-21T06:13:25;8.20;99.90
50067;DHT22;35952;52.524;13.340;2024-02-21T06:15:51;8.20;99.90
50067;DHT22;35952;52.524;13.340;2024-02-21T06:18:17;8.20;99.90
50067;DHT22;35952;52.524;13.340;2024-02-21T06:20:43;8.20;99.90
50067;DHT22;35952;52.524;13.340;2024-02-21T06:23:09;8.30;99.90
50067;DHT22;35952;52.524;13.340;2024-02-21T06:25:34;8.20;99.90
50067;DHT22;35952;52.524;13.340;2024-02-21T06:28:00;8.10;99.90
50067;DHT22;35952;52.524;13.340;2024-02-21T06:30:25;8.30;99.90
50067;DHT22;35952;52.524;13.340;2024-02-21T06:32:52;8.20;99.90
50067;DHT22;35952;52.524;13.340;2024-02-21T06:35:17;8.20;99.90
50067;DHT22;35952;52.524;13.340;2024-02-21T06:37:43;8.20;99.90
50067;DHT22;35952;52.524;13.340;2024-02-21T06:40:10;8.30;99.90
50067;DHT22;35952;52.524;13.340;2024-02-21T06:42:36;8.30;99.90
50067;DHT22;35952;52.524;13.340;2024-02-21T06:45:01;8.30;99.90
50067;DHT22;35952;52.524;13.340;2024-02-21T06:47:27;8.40;99.90
50067;DHT22;35952;52.524;13.340;2024-02-21T06:49:52;8.40;99.90
50067;DHT22;35952;52.524;13.340;2024-02-21T06:52:18;8.40;99.90
50067;DHT22;35952;52.524;13.340;2024-02-21T06:54:48;8.30;99.90
50067;DHT22;35952;52.524;13.340;2024-02-21T06:57:13;8.30;99.90
50067;DHT22;35952;52.524;13.340;2024-02-21T06:59:40;8.50;99.90
50067;DHT22;35952;52.524;13.340;2024-02-21T07:02:05;8.50;99.90
50067;DHT22;35952;52.524;13.340;2024-02-21T07:04:31;8.60;99.90
50067;DHT22;35952;52.524;13.340;2024-02-21T07:06:56;8.60;99.90
50067;DHT22;35952;52.524;13.340;2024-02-21T07:09:22;8.60;99.90
50067;DHT22;35952;52.524;13.340;2024-02-21T07:11:47;8.60;99.90
50067;DHT22;35952;52.524;13.340;2024-02-21T07:14:14;8.50;99.90
50067;DHT22;35952;52.524;13.340;2024-02-21T07:16:40;8.60;99.90
50067;DHT22;35952;52.524;13.340;2024-02-21T07:19:06;8.60;99.90
50067;DHT22;35952;52.524;13.340;2024-02-21T07:21:32;8.60;99.90
50067;DHT22;35952;52.524;13.340;2024-02-21T07:23:57;8.60;99.90
50067;DHT22;35952;52.524;13.340;2024-02-21T07:26:23;8.60;99.90
50067;DHT22;35952;52.524;13.340;2024-02-21T07:28:48;8.60;99.90
50067;DHT22;35952;52.524;13.340;2024-02-21T07:31:14;8.70;99.90
50067;DHT22;35952;52.524;13.340;2024-02-21T07:33:39;8.70;99.90
50067;DHT22;35952;52.524;13.340;2024-02-21T07:36:10;8.80;99.90
50067;DHT22;35952;52.524;13.340;2024-02-21T07:38:36;8.90;99.90
50067;DHT22;35952;52.524;13.340;2024-02-21T07:41:01;8.80;99.90
50067;DHT22;35952;52.524;13.340;2024-02-21T07:43:28;8.80;99.90
50067;DHT22;35952;52.524;13.340;2024-02-21T07:45:53;8.80;99.90
50067;DHT22;35952;52.524;13.340;2024-02-21T07:48:19;8.90;99.90
50067;DHT22;35952;52.524;13.340;2024-02-21T07:50:44;8.90;99.90
50067;DHT22;35952;52.524;13.340;2024-02-21T07:53:10;8.90;99.90
50067;DHT22;35952;52.524;13.340;2024-02-21T07:55:35;8.70;99.90
50067;DHT22;35952;52.524;13.340;2024-02-21T07:58:01;8.80;99.90
50067;DHT22;35952;52.524;13.340;2024-02-21T08:00:27;8.70;99.90
50067;DHT22;35952;52.524;13.340;2024-02-21T08:02:52;8.70;99.90
50067;DHT22;35952;52.524;13.340;2024-02-21T08:05:18;8.80;99.90
50067;DHT22;35952;52.524;13.340;2024-02-21T08:07:44;8.90;99.90
50067;DHT22;35952;52.524;13.340;2024-02-21T08:10:09;8.90;99.90
50067;DHT22;35952;52.524;13.340;2024-02-21T08:12:35;8.90;99.90
50067;DHT22;35952;52.524;13.340;2024-02-21T08:15:01;8.60;99.90
50067;DHT22;35952;52.524;13.340;2024-02-21T08:17:28;8.90;99.90
50067;DHT22;35952;52.524;13.340;2024-02-21T08:19:54;9.00;99.90
50067;DHT22;35952;52.524;13.340;2024-02-21T08:22:19;9.10;99.90
50067;DHT22;35952;52.524;13.340;2024-02-21T08:24:45;9.00;99.90
50067;DHT22;35952;52.524;13.340;2024-02-21T08:27:10;9.00;99.90
50067;DHT22;35952;52.524;13.340;2024-02-21T08:29:36;9.10;99.90
50067;DHT22;35952;52.524;13.340;2024-02-21T08:32:01;9.10;99.90
50067;DHT22;35952;52.524;13.340;2024-02-21T08:34:27;9.20;99.90
50067;DHT22;35952;52.524;13.340;2024-02-21T08:36:55;9.20;99.90
50067;DHT22;35952;52.524;13.340;2024-02-21T08:39:20;9.20;99.90
50067;DHT22;35952;52.524;13.340;2024-02-21T08:41:46;9.30;99.90
50067;DHT22;35952;52.524;13.340;2024-02-21T08:44:12;9.50;99.90
50067;DHT22;35952;52.524;13.340;2024-02-21T08:46:37;9.50;99.90
50067;DHT22;35952;52.524;13.340;2024-02-21T08:49:05;9.50;99.90
50067;DHT22;35952;52.524;13.340;2024-02-21T08:51:31;9.50;99.90
50067;DHT22;35952;52.524;13.340;2024-02-21T08:54:04;9.60;99.90
50067;DHT22;35952;52.524;13.340;2024-02-21T08:56:30;9.70;99.90
50067;DHT22;35952;52.524;13.340;2024-02-21T08:58:56;9.70;99.90
50067;DHT22;35952;52.524;13.340;2024-02-21T09:01:23;9.70;99.90
50067;DHT22;35952;52.524;13.340;2024-02-21T09:03:49;9.70;99.90
50067;DHT22;35952;52.524;13.340;2024-02-21T09:06:18;9.80;99.90
50067;DHT22;35952;52.524;13.340;2024-02-21T09:08:45;9.70;99.90
50067;DHT22;35952;52.524;13.340;2024-02-21T09:11:10;9.70;99.90
50067;DHT22;35952;52.524;13.340;2024-02-21T09:13:36;9.80;99.90
50067;DHT22;35952;52.524;13.340;2024-02-21T09:16:01;9.80;99.90
50067;DHT22;35952;52.524;13.340;2024-02-21T09:18:27;9.80;99.90
50067;DHT22;35952;52.524;13.340;2024-02-21T09:20:52;9.90;99.90
50067;DHT22;35952;52.524;13.340;2024-02-21T09:23:18;10.00;99.90
50067;DHT22;35952;52.524;13.340;2024-02-21T09:25:45;10.10;99.90
50067;DHT22;35952;52.524;13.340;2024-02-21T09:28:12;10.10;99.90
50067;DHT22;35952;52.524;13.340;2024-02-21T09:30:38;10.10;99.90
50067;DHT22;35952;52.524;13.340;2024-02-21T09:33:04;9.90;99.90
50067;DHT22;35952;52.524;13.340;2024-02-21T09:35:30;9.90;99.90
50067;DHT22;35952;52.524;13.340;2024-02-21T09:37:56;10.00;99.90
50067;DHT22;35952;52.524;13.340;2024-02-21T09:40:21;10.10;99.90
50067;DHT22;35952;52.524;13.340;2024-02-21T09:42:48;10.10;99.90
50067;DHT22;35952;52.524;13.340;2024-02-21T09:50:43;10.40;99.90
50067;DHT22;35952;52.524;13.340;2024-02-21T09:53:12;10.60;99.90
50067;DHT22;35952;52.524;13.340;2024-02-21T09:55:38;10.60;99.90
50067;DHT22;35952;52.524;13.340;2024-02-21T09:58:09;10.70;99.90
50067;DHT22;35952;52.524;13.340;2024-02-21T10:00:38;10.70;99.90
50067;DHT22;35952;52.524;13.340;2024-02-21T10:03:04;10.70;99.90
50067;DHT22;35952;52.524;13.340;2024-02-21T10:05:34;10.70;99.90
50067;DHT22;35952;52.524;13.340;2024-02-21T10:08:01;10.70;99.90
50067;DHT22;35952;52.524;13.340;2024-02-21T10:10:27;10.60;99.90
50067;DHT22;35952;52.524;13.340;2024-02-21T10:12:53;10.50;99.90
50067;DHT22;35952;52.524;13.340;2024-02-21T10:15:24;10.60;99.90
50067;DHT22;35952;52.524;13.340;2024-02-21T10:17:58;10.70;99.90
50067;DHT22;35952;52.524;13.340;2024-02-21T10:20:24;10.80;99.90
50067;DHT22;35952;52.524;13.340;2024-02-21T10:23:03;10.70;99.90
50067;DHT22;35952;52.524;13.340;2024-02-21T10:25:38;10.80;99.90
50067;DHT22;35952;52.524;13.340;2024-02-21T10:28:07;10.70;99.90
50067;DHT22;35952;52.524;13.340;2024-02-21T10:30:32;10.90;99.90
50067;DHT22;35952;52.524;13.340;2024-02-21T10:32:58;11.00;99.90
50067;DHT22;35952;52.524;13.340;2024-02-21T10:35:31;11.10;99.90
50067;DHT22;35952;52.524;13.340;2024-02-21T10:37:58;11.20;99.90
50067;DHT22;35952;52.524;13.340;2024-02-21T10:40:25;11.10;99.90
50067;DHT22;35952;52.524;13.340;2024-02-21T10:42:59;11.00;99.90
50067;DHT22;35952;52.524;13.340;2024-02-21T10:45:32;10.80;99.90
50067;DHT22;35952;52.524;13.340;2024-02-21T10:48:10;10.70;99.90
50067;DHT22;35952;52.524;13.340;2024-02-21T10:51:03;10.80;99.90
50067;DHT22;35952;52.524;13.340;2024-02-21T10:56:38;10.80;99.90
50067;DHT22;35952;52.524;13.340;2024-02-21T10:59:06;10.70;99.90
50067;DHT22;35952;52.524;13.340;2024-02-21T11:01:31;10.60;99.90
50067;DHT22;35952;52.524;13.340;2024-02-21T11:03:59;10.60;99.90
50067;DHT22;35952;52.524;13.340;2024-02-21T11:06:27;10.60;99.90
50067;DHT22;35952;52.524;13.340;2024-02-21T11:09:04;10.60;99.90
50067;DHT22;35952;52.524;13.340;2024-02-21T11:11:36;10.80;99.90
50067;DHT22;35952;52.524;13.340;2024-02-21T11:14:10;11.00;99.90
50067;DHT22;35952;52.524;13.340;2024-02-21T11:16:37;11.30;99.90
50067;DHT22;35952;52.524;13.340;2024-02-21T11:19:24;11.60;99.90
50067;DHT22;35952;52.524;13.340;2024-02-21T11:21:51;11.80;99.90
50067;DHT22;35952;52.524;13.340;2024-02-21T11:27:16;11.80;99.90
50067;DHT22;35952;52.524;13.340;2024-02-21T11:29:46;12.00;99.90
50067;DHT22;35952;52.524;13.340;2024-02-21T11:32:16;12.40;99.90
50067;DHT22;35952;52.524;13.340;2024-02-21T11:34:56;12.30;99.90
50067;DHT22;35952;52.524;13.340;2024-02-21T11:37:25;12.20;99.90
50067;DHT22;35952;52.524;13.340;2024-02-21T11:39:52;12.20;99.90
50067;DHT22;35952;52.524;13.340;2024-02-21T11:42:18;12.00;99.90
50067;DHT22;35952;52.524;13.340;2024-02-21T11:44:44;12.00;99.90
50067;DHT22;35952;52.524;13.340;2024-02-21T11:47:09;11.90;99.90
50067;DHT22;35952;52.524;13.340;2024-02-21T11:49:44;12.00;99.90
50067;DHT22;35952;52.524;13.340;2024-02-21T11:52:10;12.30;99.90
50067;DHT22;35952;52.524;13.340;2024-02-21T11:54:36;12.50;99.90
50067;DHT22;35952;52.524;13.340;2024-02-21T11:57:02;12.50;99.90
50067;DHT22;35952;52.524;13.340;2024-02-21T11:59:33;12.50;99.90
50067;DHT22;35952;52.524;13.340;2024-02-21T12:02:02;12.40;99.90
50067;DHT22;35952;52.524;13.340;2024-02-21T12:04:30;12.40;99.90
50067;DHT22;35952;52.524;13.340;2024-02-21T12:06:57;12.50;99.90
50067;DHT22;35952;52.524;13.340;2024-02-21T12:09:23;12.50;99.90
50067;DHT22;35952;52.524;13.340;2024-02-21T12:11:58;12.70;99.90
50067;DHT22;35952;52.524;13.340;2024-02-21T12:14:25;12.80;99.90
50067;DHT22;35952;52.524;13.340;2024-02-21T12:16:50;13.00;99.90
50067;DHT22;35952;52.524;13.340;2024-02-21T12:19:17;13.10;99.90
50067;DHT22;35952;52.524;13.340;2024-02-21T12:21:43;13.00;99.90
50067;DHT22;35952;52.524;13.340;2024-02-21T12:26:41;12.90;99.90
50067;DHT22;35952;52.524;13.340;2024-02-21T12:29:07;13.00;99.90
50067;DHT22;35952;52.524;13.340;2024-02-21T12:31:38;12.80;99.90
50067;DHT22;35952;52.524;13.340;2024-02-21T12:34:04;12.80;99.90
50067;DHT22;35952;52.524;13.340;2024-02-21T12:36:33;13.00;99.90
50067;DHT22;35952;52.524;13.340;2024-02-21T12:39:01;13.00;99.90
50067;DHT22;35952;52.524;13.340;2024-02-21T12:41:30;13.00;99.90
50067;DHT22;35952;52.524;13.340;2024-02-21T12:43:57;12.90;99.90
50067;DHT22;35952;52.524;13.340;2024-02-21T12:46:23;12.90;99.90
50067;DHT22;35952;52.524;13.340;2024-02-21T12:48:49;12.70;99.90
50067;DHT22;35952;52.524;13.340;2024-02-21T12:51:15;12.70;99.90
50067;DHT22;35952;52.524;13.340;2024-02-21T12:53:41;12.60;99.90
50067;DHT22;35952;52.524;13.340;2024-02-21T12:56:06;12.60;99.90
50067;DHT22;35952;52.524;13.340;2024-02-21T12:58:33;12.60;99.90
50067;DHT22;35952;52.524;13.340;2024-02-21T13:00:58;12.60;99.90
50067;DHT22;35952;52.524;13.340;2024-02-21T13:03:24;12.50;99.90
50067;DHT22;35952;52.524;13.340;2024-02-21T13:05:49;12.50;99.90
50067;DHT22;35952;52.524;13.340;2024-02-21T13:08:15;12.50;99.90
50067;DHT22;35952;52.524;13.340;2024-02-21T13:10:40;12.60;99.90
50067;DHT22;35952;52.524;13.340;2024-02-21T13:13:06;12.60;99.90
50067;DHT22;35952;52.524;13.340;2024-02-21T13:15:31;12.70;99.90
50067;DHT22;35952;52.524;13.340;2024-02-21T13:17:57;12.70;99.90
50067;DHT22;35952;52.524;13.340;2024-02-21T13:20:24;12.70;99.90
50067;DHT22;35952;52.524;13.340;2024-02-21T13:22:50;12.80;99.90
50067;DHT22;35952;52.524;13.340;2024-02-21T13:25:16;12.90;99.90
50067;DHT22;35952;52.524;13.340;2024-02-21T13:27:44;12.90;99.90
50067;DHT22;35952;52.524;13.340;2024-02-21T13:30:10;12.90;99.90
50067;DHT22;35952;52.524;13.340;2024-02-21T13:32:36;12.70;99.90
50067;DHT22;35952;52.524;13.340;2024-02-21T13:35:01;12.60;99.90
50067;DHT22;35952;52.524;13.340;2024-02-21T13:37:28;12.40;99.90
50067;DHT22;35952;52.524;13.340;2024-02-21T13:39:54;12.50;99.90
50067;DHT22;35952;52.524;13.340;2024-02-21T13:42:20;12.50;99.90
50067;DHT22;35952;52.524;13.340;2024-02-21T13:44:45;12.20;99.90
50067;DHT22;35952;52.524;13.340;2024-02-21T13:47:13;11.90;99.90
50067;DHT22;35952;52.524;13.340;2024-02-21T13:49:39;12.00;99.90
50067;DHT22;35952;52.524;13.340;2024-02-21T13:52:05;11.90;99.90
50067;DHT22;35952;52.524;13.340;2024-02-21T13:54:30;12.00;99.90
50067;DHT22;35952;52.524;13.340;2024-02-21T13:56:56;12.10;99.90
50067;DHT22;35952;52.524;13.340;2024-02-21T13:59:21;12.10;99.90
50067;DHT22;35952;52.524;13.340;2024-02-21T14:01:47;12.10;99.90
50067;DHT22;35952;52.524;13.340;2024-02-21T14:04:12;12.20;99.90
50067;DHT22;35952;52.524;13.340;2024-02-21T14:06:38;12.30;99.90
50067;DHT22;35952;52.524;13.340;2024-02-21T14:09:09;12.30;99.90
50067;DHT22;35952;52.524;13.340;2024-02-21T14:11:34;12.30;99.90
50067;DHT22;35952;52.524;13.340;2024-02-21T14:14:00;12.40;99.90
50067;DHT22;35952;52.524;13.340;2024-02-21T14:16:25;12.40;99.90
50067;DHT22;35952;52.524;13.340;2024-02-21T14:18:51;12.30;99.90
50067;DHT22;35952;52.524;13.340;2024-02-21T14:21:16;12.20;99.90
50067;DHT22;35952;52.524;13.340;2024-02-21T14:23:42;12.20;99.90
50067;DHT22;35952;52.524;13.340;2024-02-21T14:26:08;12.20;99.90
50067;DHT22;35952;52.524;13.340;2024-02-21T14:28:34;12.20;99.90
50067;DHT22;35952;52.524;13.340;2024-02-21T14:31:00;12.20;99.90
50067;DHT22;35952;52.524;13.340;2024-02-21T14:33:28;12.30;99.90
50067;DHT22;35952;52.524;13.340;2024-02-21T14:35:55;12.30;99.90
50067;DHT22;35952;52.524;13.340;2024-02-21T14:38:20;12.40;99.90
50067;DHT22;35952;52.524;13.340;2024-02-21T14:40:46;12.30;99.90
50067;DHT22;35952;52.524;13.340;2024-02-21T14:43:11;12.40;99.90
50067;DHT22;35952;52.524;13.340;2024-02-21T14:45:37;12.40;99.90
50067;DHT22;35952;52.524;13.340;2024-02-21T14:48:04;12.40;99.90
50067;DHT22;35952;52.524;13.340;2024-02-21T14:50:30;12.20;99.90
50067;DHT22;35952;52.524;13.340;2024-02-21T14:52:55;12.20;99.90
50067;DHT22;35952;52.524;13.340;2024-02-21T14:55:21;12.00;99.90
50067;DHT22;35952;52.524;13.340;2024-02-21T14:57:46;12.10;99.90
50067;DHT22;35952;52.524;13.340;2024-02-21T15:00:12;12.00;99.90
50067;DHT22;35952;52.524;13.340;2024-02-21T15:02:38;12.00;99.90
50067;DHT22;35952;52.524;13.340;2024-02-21T15:05:04;12.00;99.90
50067;DHT22;35952;52.524;13.340;2024-02-21T15:07:31;12.10;99.90
50067;DHT22;35952;52.524;13.340;2024-02-21T15:09:56;12.00;99.90
50067;DHT22;35952;52.524;13.340;2024-02-21T15:12:22;12.10;99.90
50067;DHT22;35952;52.524;13.340;2024-02-21T15:14:48;12.20;99.90
50067;DHT22;35952;52.524;13.340;2024-02-21T15:17:14;12.20;99.90
50067;DHT22;35952;52.524;13.340;2024-02-21T15:19:40;12.20;99.90
50067;DHT22;35952;52.524;13.340;2024-02-21T15:22:12;12.10;99.90
50067;DHT22;35952;52.524;13.340;2024-02-21T15:24:38;12.10;99.90
50067;DHT22;35952;52.524;13.340;2024-02-21T15:27:04;12.00;99.90
50067;DHT22;35952;52.524;13.340;2024-02-21T15:29:31;12.00;99.90
50067;DHT22;35952;52.524;13.340;2024-02-21T15:31:56;11.90;99.90
50067;DHT22;35952;52.524;13.340;2024-02-21T15:34:22;11.70;99.90
50067;DHT22;35952;52.524;13.340;2024-02-21T15:36:47;11.70;99.90